sensor_id;sensor_type;location;lat;lon;timestamp;pressure;altitude;pressure_sealevel;temperature;humidity
46886;BME280;32622;48.202;11.326;2023-06-22T00:01:41;1018.14;;;17.96;43.61
46886;BME280;32622;48.202;11.326;2023-06-22T00:03:43;1018.18;;;17.65;44.51
46886;BME280;32622;48.202;11.326;2023-06-22T00:05:45;1018.04;;;17.83;43.60
46886;BME280;32622;48.202;11.326;2023-06-22T00:07:47;1018.25;;;16.70;45.05
46886;BME280;32622;48.202;11.326;2023-06-22T00:09:49;1017.98;;;17.52;43.90
46886;BME280;32622;48.202;11.326;2023-06-22T00:11:51;1018.33;;;16.11;47.19
46886;BME280;32622;48.202;11.326;2023-06-22T00:13:53;1017.88;;;18.41;42.75
46886;BME280;32622;48.202;11.326;2023-06-22T00:15:55;1017.76;;;18.71;42.13
46886;BME280;32622;48.202;11.326;2023-06-22T00:17:58;1017.78;;;18.26;42.12
46886;BME280;32622;48.202;11.326;2023-06-22T00:20:00;1018.07;;;17.24;44.06
46886;BME280;32622;48.202;11.326;2023-06-22T00:22:02;1017.69;;;18.79;41.98
46886;BME280;32622;48.202;11.326;2023-06-22T00:24:05;1017.86;;;18.02;41.87
46886;BME280;32622;48.202;11.326;2023-06-22T00:26:07;1018.36;;;16.08;45.85
46886;BME280;32622;48.202;11.326;2023-06-22T00:28:09;1017.75;;;18.66;42.02
46886;BME280;32622;48.202;11.326;2023-06-22T00:30:12;1017.75;;;18.79;40.91
46886;BME280;32622;48.202;11.326;2023-06-22T00:32:14;1018.04;;;17.55;42.14
46886;BME280;32622;48.202;11.326;2023-06-22T00:34:16;1017.70;;;19.19;40.64
46886;BME280;32622;48.202;11.326;2023-06-22T00:36:18;1017.58;;;19.64;39.40
46886;BME280;32622;48.202;11.326;2023-06-22T00:38:21;1017.95;;;17.97;42.14
46886;BME280;32622;48.202;11.326;2023-06-22T00:40:23;1017.68;;;19.05;40.09
46886;BME280;32622;48.202;11.326;2023-06-22T00:42:25;1017.61;;;19.37;39.47
46886;BME280;32622;48.202;11.326;2023-06-22T00:44:27;1017.49;;;19.64;39.02
46886;BME280;32622;48.202;11.326;2023-06-22T00:46:29;1017.58;;;19.04;39.90
46886;BME280;32622;48.202;11.326;2023-06-22T00:48:31;1017.61;;;19.02;39.84
46886;BME280;32622;48.202;11.326;2023-06-22T00:50:34;1017.77;;;18.35;40.71
46886;BME280;32622;48.202;11.326;2023-06-22T00:52:37;1017.48;;;19.86;38.81
46886;BME280;32622;48.202;11.326;2023-06-22T00:54:40;1017.33;;;20.28;38.19
46886;BME280;32622;48.202;11.326;2023-06-22T00:56:42;1017.46;;;19.39;39.33
46886;BME280;32622;48.202;11.326;2023-06-22T00:58:44;1017.43;;;19.25;39.95
46886;BME280;32622;48.202;11.326;2023-06-22T01:00:47;1017.58;;;18.25;40.68
46886;BME280;32622;48.202;11.326;2023-06-22T01:02:49;1017.65;;;17.73;41.98
46886;BME280;32622;48.202;11.326;2023-06-22T01:04:52;1017.99;;;16.34;44.09
46886;BME280;32622;48.202;11.326;2023-06-22T01:07:00;1017.43;;;18.47;40.82
46886;BME280;32622;48.202;11.326;2023-06-22T01:09:10;1017.88;;;16.80;44.09
46886;BME280;32622;48.202;11.326;2023-06-22T01:11:23;1017.80;;;16.94;44.36
46886;BME280;32622;48.202;11.326;2023-06-22T01:13:34;1017.50;;;18.00;42.84
46886;BME280;32622;48.202;11.326;2023-06-22T01:15:42;1017.52;;;17.98;42.83
46886;BME280;32622;48.202;11.326;2023-06-22T01:17:48;1017.81;;;16.94;43.57
46886;BME280;32622;48.202;11.326;2023-06-22T01:19:54;1017.96;;;16.07;44.18
46886;BME280;32622;48.202;11.326;2023-06-22T01:21:58;1017.80;;;16.65;44.09
46886;BME280;32622;48.202;11.326;2023-06-22T01:24:14;1017.95;;;15.80;46.41
46886;BME280;32622;48.202;11.326;2023-06-22T01:26:19;1018.02;;;15.63;46.82
46886;BME280;32622;48.202;11.326;2023-06-22T01:28:33;1017.76;;;16.70;45.82
46886;BME280;32622;48.202;11.326;2023-06-22T01:30:37;1018.05;;;15.20;47.83
46886;BME280;32622;48.202;11.326;2023-06-22T01:32:40;1017.85;;;16.22;45.28
46886;BME280;32622;48.202;11.326;2023-06-22T01:34:43;1017.39;;;18.19;41.56
46886;BME280;32622;48.202;11.326;2023-06-22T01:36:46;1017.46;;;17.81;41.54
46886;BME280;32622;48.202;11.326;2023-06-22T01:38:49;1017.39;;;18.33;41.44
46886;BME280;32622;48.202;11.326;2023-06-22T01:40:52;1017.25;;;19.10;39.96
46886;BME280;32622;48.202;11.326;2023-06-22T01:42:55;1017.49;;;18.11;40.77
46886;BME280;32622;48.202;11.326;2023-06-22T01:44:58;1017.45;;;18.37;41.42
46886;BME280;32622;48.202;11.326;2023-06-22T01:47:02;1017.60;;;17.64;42.37
46886;BME280;32622;48.202;11.326;2023-06-22T01:49:04;1017.35;;;18.64;41.18
46886;BME280;32622;48.202;11.326;2023-06-22T01:51:16;1017.29;;;18.79;40.63
46886;BME280;32622;48.202;11.326;2023-06-22T01:53:18;1017.38;;;18.26;40.34
46886;BME280;32622;48.202;11.326;2023-06-22T01:55:20;1017.85;;;16.40;43.91
46886;BME280;32622;48.202;11.326;2023-06-22T01:57:22;1017.61;;;17.64;41.79
46886;BME280;32622;48.202;11.326;2023-06-22T01:59:31;1017.46;;;18.27;40.85
46886;BME280;32622;48.202;11.326;2023-06-22T02:01:39;1017.33;;;18.81;39.99
46886;BME280;32622;48.202;11.326;2023-06-22T02:03:47;1017.59;;;17.64;41.53
46886;BME280;32622;48.202;11.326;2023-06-22T02:05:56;1017.55;;;17.88;40.66
46886;BME280;32622;48.202;11.326;2023-06-22T02:08:05;1017.73;;;17.34;41.93
46886;BME280;32622;48.202;11.326;2023-06-22T02:10:10;1017.44;;;18.79;39.98
46886;BME280;32622;48.202;11.326;2023-06-22T02:12:18;1017.53;;;18.50;40.72
46886;BME280;32622;48.202;11.326;2023-06-22T02:14:23;1017.65;;;17.90;40.54
46886;BME280;32622;48.202;11.326;2023-06-22T02:16:27;1017.58;;;18.13;40.93
46886;BME280;32622;48.202;11.326;2023-06-22T02:18:29;1017.44;;;18.83;39.46
46886;BME280;32622;48.202;11.326;2023-06-22T02:20:32;1017.41;;;19.03;39.10
46886;BME280;32622;48.202;11.326;2023-06-22T02:22:34;1017.56;;;18.54;40.31
46886;BME280;32622;48.202;11.326;2023-06-22T02:24:36;1017.90;;;17.26;42.52
46886;BME280;32622;48.202;11.326;2023-06-22T02:26:38;1017.64;;;18.32;41.05
46886;BME280;32622;48.202;11.326;2023-06-22T02:28:41;1017.74;;;17.89;41.77
46886;BME280;32622;48.202;11.326;2023-06-22T02:30:43;1018.11;;;16.18;44.26
46886;BME280;32622;48.202;11.326;2023-06-22T02:32:45;1017.86;;;17.37;43.22
46886;BME280;32622;48.202;11.326;2023-06-22T02:34:47;1017.56;;;18.53;41.17
46886;BME280;32622;48.202;11.326;2023-06-22T02:36:50;1017.87;;;17.36;41.68
46886;BME280;32622;48.202;11.326;2023-06-22T02:38:53;1017.97;;;17.19;42.94
46886;BME280;32622;48.202;11.326;2023-06-22T02:40:55;1018.31;;;15.39;45.50
46886;BME280;32622;48.202;11.326;2023-06-22T02:42:58;1017.78;;;17.75;42.59
46886;BME280;32622;48.202;11.326;2023-06-22T02:45:00;1017.56;;;18.55;41.02
46886;BME280;32622;48.202;11.326;2023-06-22T02:47:02;1017.62;;;18.29;41.30
46886;BME280;32622;48.202;11.326;2023-06-22T02:49:05;1018.07;;;16.45;43.92
46886;BME280;32622;48.202;11.326;2023-06-22T02:51:07;1018.20;;;15.86;44.82
46886;BME280;32622;48.202;11.326;2023-06-22T02:53:10;1018.03;;;16.78;44.63
46886;BME280;32622;48.202;11.326;2023-06-22T02:55:12;1017.80;;;17.92;43.16
46886;BME280;32622;48.202;11.326;2023-06-22T02:57:14;1018.05;;;16.71;43.61
46886;BME280;32622;48.202;11.326;2023-06-22T02:59:16;1017.99;;;16.78;43.53
46886;BME280;32622;48.202;11.326;2023-06-22T03:01:18;1017.92;;;16.93;43.50
46886;BME280;32622;48.202;11.326;2023-06-22T03:03:20;1018.14;;;15.72;45.25
46886;BME280;32622;48.202;11.326;2023-06-22T03:05:23;1017.71;;;17.56;42.98
46886;BME280;32622;48.202;11.326;2023-06-22T03:07:25;1017.62;;;17.69;42.44
46886;BME280;32622;48.202;11.326;2023-06-22T03:09:27;1017.95;;;16.36;43.55
46886;BME280;32622;48.202;11.326;2023-06-22T03:11:30;1018.05;;;16.05;44.49
46886;BME280;32622;48.202;11.326;2023-06-22T03:13:32;1017.48;;;18.42;41.26
46886;BME280;32622;48.202;11.326;2023-06-22T03:15:34;1017.50;;;18.24;40.96
46886;BME280;32622;48.202;11.326;2023-06-22T03:17:37;1017.59;;;17.69;41.22
46886;BME280;32622;48.202;11.326;2023-06-22T03:19:39;1017.77;;;17.12;42.50
46886;BME280;32622;48.202;11.326;2023-06-22T03:21:41;1017.62;;;17.57;41.29
46886;BME280;32622;48.202;11.326;2023-06-22T03:23:44;1017.37;;;18.94;39.90
46886;BME280;32622;48.202;11.326;2023-06-22T03:25:46;1018.06;;;16.06;44.63
46886;BME280;32622;48.202;11.326;2023-06-22T03:27:48;1017.73;;;17.48;42.63
46886;BME280;32622;48.202;11.326;2023-06-22T03:29:50;1017.60;;;18.14;41.28
46886;BME280;32622;48.202;11.326;2023-06-22T03:31:52;1017.78;;;17.56;42.51
46886;BME280;32622;48.202;11.326;2023-06-22T03:33:54;1017.82;;;17.54;42.55
46886;BME280;32622;48.202;11.326;2023-06-22T03:35:56;1018.24;;;15.68;45.28
46886;BME280;32622;48.202;11.326;2023-06-22T03:37:58;1018.24;;;15.39;46.29
46886;BME280;32622;48.202;11.326;2023-06-22T03:40:00;1017.88;;;17.28;44.22
46886;BME280;32622;48.202;11.326;2023-06-22T03:42:03;1017.83;;;17.38;42.92
46886;BME280;32622;48.202;11.326;2023-06-22T03:44:05;1017.65;;;18.17;41.52
46886;BME280;32622;48.202;11.326;2023-06-22T03:46:08;1017.93;;;17.31;43.04
46886;BME280;32622;48.202;11.326;2023-06-22T03:48:10;1018.26;;;15.95;46.57
46886;BME280;32622;48.202;11.326;2023-06-22T03:50:12;1018.08;;;16.55;45.34
46886;BME280;32622;48.202;11.326;2023-06-22T03:52:14;1017.98;;;16.96;43.65
46886;BME280;32622;48.202;11.326;2023-06-22T03:54:16;1017.93;;;16.93;43.66
46886;BME280;32622;48.202;11.326;2023-06-22T03:56:18;1018.03;;;16.49;45.33
46886;BME280;32622;48.202;11.326;2023-06-22T03:58:21;1017.95;;;16.86;44.21
46886;BME280;32622;48.202;11.326;2023-06-22T04:00:23;1018.38;;;15.11;47.46
46886;BME280;32622;48.202;11.326;2023-06-22T04:02:25;1017.95;;;17.42;44.07
46886;BME280;32622;48.202;11.326;2023-06-22T04:04:28;1018.11;;;16.80;45.15
46886;BME280;32622;48.202;11.326;2023-06-22T04:06:30;1018.12;;;16.99;44.79
46886;BME280;32622;48.202;11.326;2023-06-22T04:08:32;1018.48;;;15.23;48.13
46886;BME280;32622;48.202;11.326;2023-06-22T04:10:35;1018.33;;;15.80;46.56
46886;BME280;32622;48.202;11.326;2023-06-22T04:12:37;1018.30;;;15.98;46.59
46886;BME280;32622;48.202;11.326;2023-06-22T04:14:39;1018.86;;;13.59;51.67
46886;BME280;32622;48.202;11.326;2023-06-22T04:16:41;1018.27;;;15.91;47.39
46886;BME280;32622;48.202;11.326;2023-06-22T04:18:43;1018.37;;;15.42;47.62
46886;BME280;32622;48.202;11.326;2023-06-22T04:20:45;1018.02;;;16.67;45.66
46886;BME280;32622;48.202;11.326;2023-06-22T04:22:47;1017.87;;;17.37;44.77
46886;BME280;32622;48.202;11.326;2023-06-22T04:24:49;1018.14;;;16.23;46.05
46886;BME280;32622;48.202;11.326;2023-06-22T04:26:52;1018.31;;;15.51;47.23
46886;BME280;32622;48.202;11.326;2023-06-22T04:28:54;1018.43;;;14.91;49.22
46886;BME280;32622;48.202;11.326;2023-06-22T04:30:56;1017.99;;;17.00;45.56
46886;BME280;32622;48.202;11.326;2023-06-22T04:32:58;1018.00;;;16.81;45.42
46886;BME280;32622;48.202;11.326;2023-06-22T04:35:00;1017.95;;;17.03;44.38
46886;BME280;32622;48.202;11.326;2023-06-22T04:37:03;1018.22;;;15.53;47.77
46886;BME280;32622;48.202;11.326;2023-06-22T04:39:06;1017.79;;;17.41;44.29
46886;BME280;32622;48.202;11.326;2023-06-22T04:41:08;1017.68;;;17.79;43.76
46886;BME280;32622;48.202;11.326;2023-06-22T04:43:10;1017.61;;;17.82;43.27
46886;BME280;32622;48.202;11.326;2023-06-22T04:45:12;1017.40;;;18.56;42.40
46886;BME280;32622;48.202;11.326;2023-06-22T04:47:15;1018.03;;;16.09;46.71
46886;BME280;32622;48.202;11.326;2023-06-22T04:49:17;1018.01;;;15.77;46.29
46886;BME280;32622;48.202;11.326;2023-06-22T04:51:19;1017.81;;;16.65;46.10
46886;BME280;32622;48.202;11.326;2023-06-22T04:53:21;1017.77;;;16.75;46.80
46886;BME280;32622;48.202;11.326;2023-06-22T04:55:24;1017.63;;;17.44;45.21
46886;BME280;32622;48.202;11.326;2023-06-22T04:57:26;1017.79;;;16.91;46.06
46886;BME280;32622;48.202;11.326;2023-06-22T04:59:29;1017.77;;;17.36;45.33
46886;BME280;32622;48.202;11.326;2023-06-22T05:01:31;1017.96;;;16.60;46.51
46886;BME280;32622;48.202;11.326;2023-06-22T05:03:34;1017.69;;;17.84;44.81
46886;BME280;32622;48.202;11.326;2023-06-22T05:05:36;1017.96;;;16.48;46.74
46886;BME280;32622;48.202;11.326;2023-06-22T05:07:38;1017.69;;;17.70;44.93
46886;BME280;32622;48.202;11.326;2023-06-22T05:09:41;1017.93;;;16.19;46.59
46886;BME280;32622;48.202;11.326;2023-06-22T05:11:43;1017.79;;;17.01;45.89
46886;BME280;32622;48.202;11.326;2023-06-22T05:13:45;1017.46;;;18.28;43.59
46886;BME280;32622;48.202;11.326;2023-06-22T05:15:47;1017.60;;;17.70;43.65
46886;BME280;32622;48.202;11.326;2023-06-22T05:17:49;1017.37;;;18.56;41.75
46886;BME280;32622;48.202;11.326;2023-06-22T05:19:52;1017.84;;;16.40;45.16
46886;BME280;32622;48.202;11.326;2023-06-22T05:21:54;1017.85;;;16.34;46.62
46886;BME280;32622;48.202;11.326;2023-06-22T05:23:57;1017.35;;;18.34;43.25
46886;BME280;32622;48.202;11.326;2023-06-22T05:25:59;1017.37;;;18.46;42.91
46886;BME280;32622;48.202;11.326;2023-06-22T05:28:01;1017.34;;;18.64;42.73
46886;BME280;32622;48.202;11.326;2023-06-22T05:30:05;1017.53;;;17.84;43.19
46886;BME280;32622;48.202;11.326;2023-06-22T05:32:07;1017.29;;;18.75;42.51
46886;BME280;32622;48.202;11.326;2023-06-22T05:34:10;1017.87;;;16.43;45.41
46886;BME280;32622;48.202;11.326;2023-06-22T05:36:12;1017.25;;;18.96;42.33
46886;BME280;32622;48.202;11.326;2023-06-22T05:38:15;1017.16;;;19.43;40.64
46886;BME280;32622;48.202;11.326;2023-06-22T05:40:17;1017.25;;;18.81;41.41
46886;BME280;32622;48.202;11.326;2023-06-22T05:42:19;1017.13;;;19.05;41.45
46886;BME280;32622;48.202;11.326;2023-06-22T05:44:21;1016.85;;;20.07;39.85
46886;BME280;32622;48.202;11.326;2023-06-22T05:46:23;1017.27;;;18.21;42.14
46886;BME280;32622;48.202;11.326;2023-06-22T05:48:25;1017.19;;;18.52;42.26
46886;BME280;32622;48.202;11.326;2023-06-22T05:50:28;1017.01;;;19.42;40.43
46886;BME280;32622;48.202;11.326;2023-06-22T05:52:30;1016.98;;;19.67;39.51
46886;BME280;32622;48.202;11.326;2023-06-22T05:54:32;1016.88;;;20.65;38.78
46886;BME280;32622;48.202;11.326;2023-06-22T05:56:34;1017.02;;;20.02;39.49
46886;BME280;32622;48.202;11.326;2023-06-22T05:58:36;1017.13;;;19.33;39.89
46886;BME280;32622;48.202;11.326;2023-06-22T06:00:39;1016.69;;;21.52;37.07
46886;BME280;32622;48.202;11.326;2023-06-22T06:02:41;1017.13;;;19.77;38.87
46886;BME280;32622;48.202;11.326;2023-06-22T06:04:43;1017.05;;;20.51;38.25
46886;BME280;32622;48.202;11.326;2023-06-22T06:06:45;1016.81;;;21.34;36.88
46886;BME280;32622;48.202;11.326;2023-06-22T06:08:48;1016.95;;;20.65;37.72
46886;BME280;32622;48.202;11.326;2023-06-22T06:10:50;1016.98;;;20.08;38.07
46886;BME280;32622;48.202;11.326;2023-06-22T06:12:52;1017.22;;;18.95;40.23
46886;BME280;32622;48.202;11.326;2023-06-22T06:14:54;1016.91;;;20.04;39.11
46886;BME280;32622;48.202;11.326;2023-06-22T06:16:56;1016.82;;;20.39;39.12
46886;BME280;32622;48.202;11.326;2023-06-22T06:18:58;1016.96;;;19.52;40.42
46886;BME280;32622;48.202;11.326;2023-06-22T06:21:00;1016.60;;;20.96;38.33
46886;BME280;32622;48.202;11.326;2023-06-22T06:23:03;1016.50;;;21.29;37.03
46886;BME280;32622;48.202;11.326;2023-06-22T06:25:05;1016.28;;;21.65;36.49
46886;BME280;32622;48.202;11.326;2023-06-22T06:27:08;1016.91;;;18.56;41.69
46886;BME280;32622;48.202;11.326;2023-06-22T06:29:10;1016.86;;;19.20;41.73
46886;BME280;32622;48.202;11.326;2023-06-22T06:31:12;1017.12;;;17.82;44.49
46886;BME280;32622;48.202;11.326;2023-06-22T06:33:14;1016.45;;;20.90;39.47
46886;BME280;32622;48.202;11.326;2023-06-22T06:35:17;1016.56;;;20.96;38.51
46886;BME280;32622;48.202;11.326;2023-06-22T06:37:19;1016.85;;;19.60;39.96
46886;BME280;32622;48.202;11.326;2023-06-22T06:39:21;1016.57;;;20.94;38.54
46886;BME280;32622;48.202;11.326;2023-06-22T06:41:23;1016.51;;;21.46;36.99
46886;BME280;32622;48.202;11.326;2023-06-22T06:43:25;1016.07;;;23.04;34.37
46886;BME280;32622;48.202;11.326;2023-06-22T06:45:28;1016.57;;;20.96;36.21
46886;BME280;32622;48.202;11.326;2023-06-22T06:47:30;1016.03;;;23.27;33.82
46886;BME280;32622;48.202;11.326;2023-06-22T06:49:33;1016.25;;;22.11;34.09
46886;BME280;32622;48.202;11.326;2023-06-22T06:51:35;1015.75;;;24.52;31.97
46886;BME280;32622;48.202;11.326;2023-06-22T06:53:38;1016.03;;;22.70;33.68
46886;BME280;32622;48.202;11.326;2023-06-22T06:55:40;1015.96;;;23.26;33.44
46886;BME280;32622;48.202;11.326;2023-06-22T06:57:42;1016.11;;;22.86;32.81
46886;BME280;32622;48.202;11.326;2023-06-22T06:59:44;1016.25;;;22.29;33.79
46886;BME280;32622;48.202;11.326;2023-06-22T07:01:47;1016.25;;;22.18;34.30
46886;BME280;32622;48.202;11.326;2023-06-22T07:03:49;1016.20;;;22.42;34.43
46886;BME280;32622;48.202;11.326;2023-06-22T07:05:51;1016.19;;;22.21;34.79
46886;BME280;32622;48.202;11.326;2023-06-22T07:07:53;1015.97;;;23.25;33.49
46886;BME280;32622;48.202;11.326;2023-06-22T07:09:55;1016.55;;;20.94;36.13
46886;BME280;32622;48.202;11.326;2023-06-22T07:11:57;1015.90;;;23.75;32.87
46886;BME280;32622;48.202;11.326;2023-06-22T07:14:00;1015.84;;;23.86;32.66
46886;BME280;32622;48.202;11.326;2023-06-22T07:16:02;1015.70;;;24.41;31.70
46886;BME280;32622;48.202;11.326;2023-06-22T07:18:04;1015.81;;;23.85;32.35
46886;BME280;32622;48.202;11.326;2023-06-22T07:20:07;1016.10;;;22.55;33.06
46886;BME280;32622;48.202;11.326;2023-06-22T07:22:09;1016.06;;;22.61;34.15
46886;BME280;32622;48.202;11.326;2023-06-22T07:24:12;1016.08;;;22.56;34.29
46886;BME280;32622;48.202;11.326;2023-06-22T07:26:14;1015.78;;;23.49;33.45
46886;BME280;32622;48.202;11.326;2023-06-22T07:28:16;1015.97;;;22.44;34.40
46886;BME280;32622;48.202;11.326;2023-06-22T07:30:18;1015.72;;;23.69;33.17
46886;BME280;32622;48.202;11.326;2023-06-22T07:32:20;1015.77;;;23.18;32.72
46886;BME280;32622;48.202;11.326;2023-06-22T07:34:22;1015.83;;;22.67;34.25
46886;BME280;32622;48.202;11.326;2023-06-22T07:36:24;1015.56;;;23.85;32.53
46886;BME280;32622;48.202;11.326;2023-06-22T07:38:26;1015.44;;;24.22;31.51
46886;BME280;32622;48.202;11.326;2023-06-22T07:40:29;1015.27;;;25.03;30.99
46886;BME280;32622;48.202;11.326;2023-06-22T07:42:31;1015.18;;;25.58;30.79
46886;BME280;32622;48.202;11.326;2023-06-22T07:44:33;1015.23;;;25.20;30.31
46886;BME280;32622;48.202;11.326;2023-06-22T07:46:35;1015.23;;;25.20;29.95
46886;BME280;32622;48.202;11.326;2023-06-22T07:48:37;1015.45;;;24.03;31.52
46886;BME280;32622;48.202;11.326;2023-06-22T07:50:40;1015.48;;;23.97;31.20
46886;BME280;32622;48.202;11.326;2023-06-22T07:52:42;1015.20;;;25.39;30.36
46886;BME280;32622;48.202;11.326;2023-06-22T07:54:44;1015.04;;;25.90;29.31
46886;BME280;32622;48.202;11.326;2023-06-22T07:56:46;1015.09;;;25.63;29.19
46886;BME280;32622;48.202;11.326;2023-06-22T07:58:48;1015.10;;;25.83;28.94
46886;BME280;32622;48.202;11.326;2023-06-22T08:00:50;1015.21;;;24.92;29.87
46886;BME280;32622;48.202;11.326;2023-06-22T08:02:52;1014.98;;;26.17;28.98
46886;BME280;32622;48.202;11.326;2023-06-22T08:04:55;1015.07;;;25.75;29.47
46886;BME280;32622;48.202;11.326;2023-06-22T08:06:57;1015.02;;;26.28;28.64
46886;BME280;32622;48.202;11.326;2023-06-22T08:08:59;1015.90;;;22.32;32.90
46886;BME280;32622;48.202;11.326;2023-06-22T08:11:01;1015.22;;;25.02;30.74
46886;BME280;32622;48.202;11.326;2023-06-22T08:13:03;1015.21;;;25.38;29.88
46886;BME280;32622;48.202;11.326;2023-06-22T08:15:07;1015.35;;;24.79;30.75
46886;BME280;32622;48.202;11.326;2023-06-22T08:17:09;1015.75;;;22.63;32.95
46886;BME280;32622;48.202;11.326;2023-06-22T08:19:11;1015.03;;;25.96;29.98
46886;BME280;32622;48.202;11.326;2023-06-22T08:21:13;1015.01;;;25.92;28.92
46886;BME280;32622;48.202;11.326;2023-06-22T08:23:16;1015.04;;;25.50;29.78
46886;BME280;32622;48.202;11.326;2023-06-22T08:25:18;1015.03;;;25.31;30.15
46886;BME280;32622;48.202;11.326;2023-06-22T08:27:20;1015.11;;;25.11;30.13
46886;BME280;32622;48.202;11.326;2023-06-22T08:29:22;1014.77;;;26.29;28.78
46886;BME280;32622;48.202;11.326;2023-06-22T08:31:24;1014.94;;;25.91;29.39
46886;BME280;32622;48.202;11.326;2023-06-22T08:33:26;1014.75;;;26.61;28.34
46886;BME280;32622;48.202;11.326;2023-06-22T08:35:29;1014.92;;;26.23;28.93
46886;BME280;32622;48.202;11.326;2023-06-22T08:37:32;1015.32;;;24.06;32.01
46886;BME280;32622;48.202;11.326;2023-06-22T08:39:34;1015.42;;;23.73;32.31
46886;BME280;32622;48.202;11.326;2023-06-22T08:41:36;1015.20;;;24.75;31.17
46886;BME280;32622;48.202;11.326;2023-06-22T08:43:38;1014.99;;;25.98;29.49
46886;BME280;32622;48.202;11.326;2023-06-22T08:45:40;1015.26;;;24.46;31.87
46886;BME280;32622;48.202;11.326;2023-06-22T08:47:43;1015.34;;;24.24;32.17
46886;BME280;32622;48.202;11.326;2023-06-22T08:49:45;1015.67;;;22.40;34.62
46886;BME280;32622;48.202;11.326;2023-06-22T08:51:47;1015.50;;;23.19;34.17
46886;BME280;32622;48.202;11.326;2023-06-22T08:53:49;1015.68;;;22.10;34.96
46886;BME280;32622;48.202;11.326;2023-06-22T08:55:51;1015.10;;;24.79;31.66
46886;BME280;32622;48.202;11.326;2023-06-22T08:57:53;1014.87;;;26.04;30.42
46886;BME280;32622;48.202;11.326;2023-06-22T08:59:56;1015.00;;;25.37;31.40
46886;BME280;32622;48.202;11.326;2023-06-22T09:01:58;1015.16;;;24.82;32.24
46886;BME280;32622;48.202;11.326;2023-06-22T09:04:00;1015.47;;;23.08;33.75
46886;BME280;32622;48.202;11.326;2023-06-22T09:06:02;1015.04;;;25.05;31.80
46886;BME280;32622;48.202;11.326;2023-06-22T09:08:04;1015.22;;;24.09;31.94
46886;BME280;32622;48.202;11.326;2023-06-22T09:10:07;1014.84;;;25.93;29.25
46886;BME280;32622;48.202;11.326;2023-06-22T09:12:10;1014.46;;;27.62;27.79
46886;BME280;32622;48.202;11.326;2023-06-22T09:14:12;1014.87;;;25.74;28.46
46886;BME280;32622;48.202;11.326;2023-06-22T09:16:14;1014.60;;;26.85;27.49
46886;BME280;32622;48.202;11.326;2023-06-22T09:18:17;1014.86;;;25.85;29.97
46886;BME280;32622;48.202;11.326;2023-06-22T09:20:19;1014.66;;;26.56;28.85
46886;BME280;32622;48.202;11.326;2023-06-22T09:22:22;1014.64;;;26.44;28.11
46886;BME280;32622;48.202;11.326;2023-06-22T09:24:24;1014.28;;;28.22;27.17
46886;BME280;32622;48.202;11.326;2023-06-22T09:26:26;1014.37;;;27.61;26.88
46886;BME280;32622;48.202;11.326;2023-06-22T09:28:28;1014.66;;;26.13;28.12
46886;BME280;32622;48.202;11.326;2023-06-22T09:30:31;1014.23;;;28.08;26.48
46886;BME280;32622;48.202;11.326;2023-06-22T09:32:33;1013.93;;;29.34;25.58
46886;BME280;32622;48.202;11.326;2023-06-22T09:34:35;1013.93;;;29.23;25.33
46886;BME280;32622;48.202;11.326;2023-06-22T09:36:37;1013.97;;;29.03;24.84
46886;BME280;32622;48.202;11.326;2023-06-22T09:38:39;1014.12;;;28.31;26.15
46886;BME280;32622;48.202;11.326;2023-06-22T09:40:41;1014.15;;;28.16;26.51
46886;BME280;32622;48.202;11.326;2023-06-22T09:42:43;1014.17;;;28.23;25.50
46886;BME280;32622;48.202;11.326;2023-06-22T09:44:46;1014.02;;;28.78;25.08
46886;BME280;32622;48.202;11.326;2023-06-22T09:46:48;1013.95;;;29.08;24.78
46886;BME280;32622;48.202;11.326;2023-06-22T09:48:50;1013.91;;;29.15;25.16
46886;BME280;32622;48.202;11.326;2023-06-22T09:50:52;1014.00;;;28.33;25.29
46886;BME280;32622;48.202;11.326;2023-06-22T09:52:54;1013.63;;;30.21;23.75
46886;BME280;32622;48.202;11.326;2023-06-22T09:54:56;1013.91;;;28.73;25.38
46886;BME280;32622;48.202;11.326;2023-06-22T09:56:58;1013.94;;;28.57;25.90
46886;BME280;32622;48.202;11.326;2023-06-22T09:59:00;1014.09;;;27.80;25.91
46886;BME280;32622;48.202;11.326;2023-06-22T10:01:03;1013.70;;;29.46;25.20
46886;BME280;32622;48.202;11.326;2023-06-22T10:03:05;1013.90;;;28.49;25.53
46886;BME280;32622;48.202;11.326;2023-06-22T10:05:07;1013.94;;;28.11;25.83
46886;BME280;32622;48.202;11.326;2023-06-22T10:07:09;1013.90;;;28.31;25.51
46886;BME280;32622;48.202;11.326;2023-06-22T10:09:11;1014.01;;;27.60;26.19
46886;BME280;32622;48.202;11.326;2023-06-22T10:11:13;1013.35;;;30.87;24.10
46886;BME280;32622;48.202;11.326;2023-06-22T10:13:15;1013.66;;;29.30;24.43
46886;BME280;32622;48.202;11.326;2023-06-22T10:15:18;1013.99;;;27.79;25.54
46886;BME280;32622;48.202;11.326;2023-06-22T10:17:20;1013.50;;;30.21;23.35
46886;BME280;32622;48.202;11.326;2023-06-22T10:19:22;1013.96;;;27.95;26.06
46886;BME280;32622;48.202;11.326;2023-06-22T10:21:24;1013.68;;;29.02;25.16
46886;BME280;32622;48.202;11.326;2023-06-22T10:23:26;1013.91;;;27.96;25.59
46886;BME280;32622;48.202;11.326;2023-06-22T10:25:29;1013.82;;;28.28;25.27
46886;BME280;32622;48.202;11.326;2023-06-22T10:27:31;1013.36;;;30.42;23.77
46886;BME280;32622;48.202;11.326;2023-06-22T10:29:33;1013.73;;;28.66;24.20
46886;BME280;32622;48.202;11.326;2023-06-22T10:31:35;1013.60;;;29.41;24.02
46886;BME280;32622;48.202;11.326;2023-06-22T10:33:37;1013.77;;;28.18;24.70
46886;BME280;32622;48.202;11.326;2023-06-22T10:35:39;1013.18;;;31.08;22.62
46886;BME280;32622;48.202;11.326;2023-06-22T10:37:42;1013.35;;;30.23;23.22
46886;BME280;32622;48.202;11.326;2023-06-22T10:39:44;1013.32;;;29.93;23.19
46886;BME280;32622;48.202;11.326;2023-06-22T10:41:46;1013.50;;;29.07;23.92
46886;BME280;32622;48.202;11.326;2023-06-22T10:43:49;1013.51;;;28.60;24.46
46886;BME280;32622;48.202;11.326;2023-06-22T10:45:51;1012.97;;;31.42;22.74
46886;BME280;32622;48.202;11.326;2023-06-22T10:47:53;1012.98;;;31.02;21.98
46886;BME280;32622;48.202;11.326;2023-06-22T10:49:55;1013.39;;;29.31;23.68